createdAt,value
2022-12-12T00:02:55.382Z,22.20
2022-12-12T00:05:58.857Z,23.00
2022-12-12T00:09:03.483Z,23.00
2022-12-12T00:12:08.391Z,22.00
2022-12-12T00:15:12.380Z,23.80
2022-12-12T00:18:15.815Z,23.00
2022-12-12T00:21:21.838Z,22.00
2022-12-12T00:24:25.166Z,23.40
2022-12-12T00:27:30.231Z,24.40
2022-12-12T00:30:33.448Z,23.00
2022-12-12T00:33:36.970Z,24.00
2022-12-12T00:36:40.954Z,24.00
2022-12-12T00:39:44.373Z,25.25
2022-12-12T00:42:49.226Z,23.00
2022-12-12T00:45:53.500Z,22.60
2022-12-12T00:48:58.646Z,22.00
2022-12-12T00:52:02.048Z,22.00
2022-12-12T00:55:06.084Z,20.40
2022-12-12T00:58:11.197Z,22.00
2022-12-12T01:01:17.820Z,21.00
2022-12-12T01:04:21.337Z,22.00
2022-12-12T01:07:25.157Z,23.00
2022-12-12T01:10:28.485Z,22.00
2022-12-12T01:13:33.345Z,23.00
2022-12-12T01:16:37.139Z,22.00
2022-12-12T01:19:40.988Z,22.00
2022-12-12T01:22:44.637Z,21.40
2022-12-12T01:25:48.220Z,23.00
2022-12-12T01:28:54.139Z,22.00
2022-12-12T01:31:57.591Z,20.00
2022-12-12T01:35:00.838Z,19.20
2022-12-12T01:38:04.513Z,20.75
2022-12-12T01:41:07.831Z,21.67
2022-12-12T01:44:40.553Z,21.60
2022-12-12T01:47:43.926Z,20.00
2022-12-12T01:50:47.922Z,20.00
2022-12-12T01:53:55.536Z,22.00
2022-12-12T01:57:02.112Z,20.00
2022-12-12T02:00:11.050Z,19.20
2022-12-12T02:03:14.447Z,22.00
2022-12-12T02:06:21.856Z,21.00
2022-12-12T02:09:26.571Z,22.00
2022-12-12T02:12:29.895Z,22.00
2022-12-12T02:15:43.381Z,21.60
2022-12-12T02:18:54.364Z,22.00
2022-12-12T02:22:02.171Z,20.00
2022-12-12T02:25:35.045Z,20.40
2022-12-12T02:29:06.076Z,21.00
2022-12-12T02:32:23.211Z,22.00
2022-12-12T02:35:36.930Z,21.00
2022-12-12T02:38:51.575Z,20.00
2022-12-12T02:42:01.590Z,22.00
2022-12-12T02:45:13.915Z,20.00
2022-12-12T02:48:25.946Z,19.00
2022-12-12T02:51:30.583Z,20.00
2022-12-12T02:54:35.134Z,21.00
2022-12-12T02:57:42.069Z,19.00
2022-12-12T03:00:57.054Z,19.60
2022-12-12T03:04:23.500Z,19.00
2022-12-12T03:07:49.297Z,20.00
2022-12-12T03:10:59.734Z,19.00
2022-12-12T03:14:12.387Z,19.80
2022-12-12T03:17:26.608Z,21.00
2022-12-12T03:20:38.237Z,19.40
2022-12-12T03:23:45.679Z,18.60
2022-12-12T03:26:54.552Z,17.40
2022-12-12T03:30:03.751Z,20.00
2022-12-12T03:33:17.802Z,21.00
2022-12-12T03:36:28.611Z,18.00
2022-12-12T03:39:37.705Z,20.00
2022-12-12T03:42:46.599Z,20.00
2022-12-12T03:45:56.032Z,18.00
2022-12-12T03:49:05.749Z,19.00
2022-12-12T03:52:17.220Z,16.80
2022-12-12T03:55:28.592Z,18.00
2022-12-12T03:58:38.160Z,16.00
2022-12-12T04:01:51.358Z,16.00
2022-12-12T04:05:02.178Z,18.00
2022-12-12T04:08:11.212Z,19.00
2022-12-12T04:11:38.873Z,19.25
2022-12-12T04:15:02.612Z,14.00
2022-12-12T04:18:17.668Z,17.40
2022-12-12T04:22:00.663Z,16.00
2022-12-12T04:25:09.234Z,16.50
2022-12-12T04:28:13.450Z,15.00
2022-12-12T04:31:19.380Z,14.80
2022-12-12T04:34:33.362Z,15.00
2022-12-12T04:37:41.117Z,16.40
2022-12-12T04:40:49.901Z,12.00
2022-12-12T04:43:57.695Z,17.00
2022-12-12T04:47:04.238Z,13.80
2022-12-12T04:50:10.611Z,20.00
2022-12-12T04:53:18.897Z,17.00
2022-12-12T04:56:30.685Z,16.40
2022-12-12T04:59:34.903Z,18.60
2022-12-12T05:02:45.462Z,15.20
2022-12-12T05:05:54.575Z,18.25
2022-12-12T05:08:59.284Z,13.50
2022-12-12T05:12:04.081Z,16.00
2022-12-12T05:15:09.301Z,15.20
2022-12-12T05:18:13.154Z,13.60
2022-12-12T05:21:16.881Z,20.00
2022-12-12T05:24:20.177Z,18.00
2022-12-12T05:27:24.935Z,18.00
2022-12-12T05:30:28.601Z,18.00
2022-12-12T05:33:32.091Z,16.40
2022-12-12T05:36:35.318Z,16.00
2022-12-12T05:39:39.197Z,19.00
2022-12-12T05:42:44.170Z,18.00
2022-12-12T05:45:47.540Z,15.60
2022-12-12T05:48:51.002Z,15.80
2022-12-12T05:51:54.300Z,17.00
2022-12-12T05:54:57.631Z,18.60
2022-12-12T05:58:02.295Z,17.40
2022-12-12T06:01:07.105Z,16.60
2022-12-12T06:04:10.418Z,18.00
2022-12-12T06:07:13.854Z,16.00
2022-12-12T06:10:17.307Z,16.00
2022-12-12T06:13:22.592Z,16.00
2022-12-12T06:16:25.866Z,17.67
2022-12-12T06:19:29.221Z,16.00
2022-12-12T06:22:32.499Z,17.40
2022-12-12T06:25:35.767Z,18.00
2022-12-12T06:28:41.095Z,19.50
2022-12-12T06:31:44.436Z,20.00
2022-12-12T06:34:47.734Z,22.00
2022-12-12T06:37:51.393Z,20.00
2022-12-12T06:40:54.793Z,18.00
2022-12-12T06:43:59.550Z,21.00
2022-12-12T06:47:02.919Z,20.00
2022-12-12T06:50:06.999Z,20.60
2022-12-12T06:53:10.324Z,22.00
2022-12-12T06:56:15.729Z,20.60
2022-12-12T06:59:20.639Z,14.80
2022-12-12T07:02:29.482Z,20.00
2022-12-12T07:05:33.653Z,20.00
2022-12-12T07:08:38.171Z,24.40
2022-12-12T07:11:42.736Z,20.00
2022-12-12T07:14:47.883Z,19.00
2022-12-12T07:17:53.214Z,22.00
2022-12-12T07:20:56.535Z,22.00
2022-12-12T07:23:59.909Z,20.80
2022-12-12T07:27:03.185Z,19.00
2022-12-12T07:30:09.298Z,22.40
2022-12-12T07:33:13.639Z,20.60
2022-12-12T07:36:18.076Z,19.80
2022-12-12T07:39:21.796Z,18.80
2022-12-12T07:42:25.174Z,22.00
2022-12-12T07:45:30.006Z,22.00
2022-12-12T07:48:33.371Z,18.80
2022-12-12T07:51:41.900Z,21.00
2022-12-12T07:54:47.445Z,20.33
2022-12-12T07:57:50.819Z,21.75
2022-12-12T08:00:55.602Z,21.00
2022-12-12T08:03:58.924Z,21.00
2022-12-12T08:07:08.084Z,21.25
2022-12-12T08:10:12.271Z,22.00
2022-12-12T08:13:15.938Z,19.75
2022-12-12T08:16:23.102Z,21.00
2022-12-12T08:19:26.851Z,20.00
2022-12-12T08:22:30.171Z,20.20
2022-12-12T08:25:34.462Z,20.00
2022-12-12T08:28:38.744Z,20.75
2022-12-12T08:31:43.713Z,22.00
2022-12-12T08:34:47.451Z,22.00
2022-12-12T08:37:50.759Z,20.00
2022-12-12T08:40:54.158Z,21.00
2022-12-12T08:43:57.387Z,21.80
2022-12-12T08:47:02.202Z,17.80
2022-12-12T08:50:06.860Z,20.40
2022-12-12T08:53:10.479Z,20.60
2022-12-12T08:56:14.178Z,22.00
2022-12-12T08:59:17.917Z,20.00
2022-12-12T09:02:22.767Z,23.60
2022-12-12T09:05:26.083Z,22.60
2022-12-12T09:08:29.594Z,22.60
2022-12-12T09:11:32.976Z,22.60
2022-12-12T09:14:36.355Z,21.33
2022-12-12T09:17:41.325Z,21.20
2022-12-12T09:20:48.766Z,22.00
2022-12-12T09:23:52.180Z,20.60
2022-12-12T09:26:55.379Z,22.00
2022-12-12T09:29:59.035Z,22.80
2022-12-12T09:33:03.681Z,23.00
2022-12-12T09:36:09.666Z,22.25
2022-12-12T09:39:13.143Z,21.20
2022-12-12T09:42:22.878Z,25.00
2022-12-12T09:45:26.868Z,21.60
2022-12-12T09:48:42.084Z,26.00
2022-12-12T09:51:48.981Z,23.60
2022-12-12T09:54:52.394Z,21.00
2022-12-12T09:58:01.806Z,24.00
2022-12-12T10:01:11.997Z,23.00
2022-12-12T10:04:24.980Z,22.00
2022-12-12T10:07:36.066Z,23.60
2022-12-12T10:10:42.323Z,23.00
2022-12-12T10:13:45.717Z,20.25
2022-12-12T10:16:55.705Z,24.00
2022-12-12T10:20:05.949Z,22.00
2022-12-12T10:23:15.984Z,22.00
2022-12-12T10:26:23.283Z,22.00
2022-12-12T10:29:28.673Z,20.60
2022-12-12T10:32:44.446Z,22.25
2022-12-12T10:36:01.950Z,22.75
2022-12-12T10:39:15.571Z,21.60
2022-12-12T10:42:28.905Z,22.00
2022-12-12T10:45:46.430Z,23.00
2022-12-12T10:48:51.181Z,20.00
2022-12-12T10:51:58.461Z,20.60
2022-12-12T10:55:02.180Z,22.00
2022-12-12T10:58:07.170Z,22.60
2022-12-12T11:01:33.063Z,23.00
2022-12-12T11:04:42.042Z,16.00
2022-12-12T11:07:49.060Z,20.00
2022-12-12T11:11:07.287Z,22.00
2022-12-12T11:14:28.157Z,22.25
2022-12-12T11:17:34.633Z,21.25
2022-12-12T11:20:45.845Z,22.00
2022-12-12T11:23:55.427Z,22.40
2022-12-12T11:27:01.872Z,24.00
2022-12-12T11:30:08.192Z,23.00
2022-12-12T11:33:21.057Z,18.00
2022-12-12T11:36:31.542Z,21.00
2022-12-12T11:39:42.608Z,22.80
2022-12-12T11:42:46.045Z,22.00
2022-12-12T11:46:04.089Z,23.00
2022-12-12T11:49:19.152Z,24.40
2022-12-12T11:52:25.637Z,22.40
2022-12-12T11:55:40.951Z,20.40
2022-12-12T11:58:54.285Z,21.00
2022-12-12T12:02:12.350Z,22.00
2022-12-12T12:05:26.850Z,21.00
2022-12-12T12:08:50.275Z,23.00
2022-12-12T12:12:05.436Z,21.00
2022-12-12T12:15:29.352Z,22.40
2022-12-12T12:18:47.550Z,21.00
2022-12-12T12:22:01.689Z,20.00
2022-12-12T12:25:31.343Z,22.00
2022-12-12T12:29:08.331Z,20.60
2022-12-12T12:32:20.201Z,23.00
2022-12-12T12:35:31.309Z,23.00
2022-12-12T12:38:50.945Z,22.00
2022-12-12T12:42:13.518Z,22.00
2022-12-12T12:45:23.215Z,21.00
2022-12-12T12:48:30.834Z,23.00
2022-12-12T12:51:38.379Z,21.60
2022-12-12T12:54:43.454Z,21.00
2022-12-12T12:57:49.915Z,21.60
2022-12-12T13:01:01.066Z,20.00
2022-12-12T13:04:09.209Z,22.00
2022-12-12T13:07:17.971Z,21.00
2022-12-12T13:10:23.786Z,20.00
2022-12-12T13:13:31.139Z,20.00
2022-12-12T13:16:36.458Z,21.40
2022-12-12T13:19:44.278Z,21.67
2022-12-12T13:23:01.372Z,20.00
2022-12-12T13:26:10.915Z,21.00
2022-12-12T13:29:32.375Z,19.40
2022-12-12T13:33:16.716Z,18.00
2022-12-12T13:36:29.332Z,20.00
2022-12-12T13:39:35.985Z,19.25
2022-12-12T13:42:54.205Z,18.20
2022-12-12T13:45:57.764Z,19.50
2022-12-12T13:49:11.990Z,22.60
2022-12-12T13:52:27.937Z,21.80
2022-12-12T13:55:31.283Z,22.00
2022-12-12T13:58:36.484Z,22.00
2022-12-12T14:01:41.596Z,21.00
2022-12-12T14:04:47.873Z,22.00
2022-12-12T14:07:53.270Z,22.50
2022-12-12T14:11:00.540Z,20.00
2022-12-12T14:14:21.961Z,22.40
2022-12-12T14:17:27.805Z,22.00
2022-12-12T14:20:36.007Z,21.40
2022-12-12T14:23:42.393Z,20.00
2022-12-12T14:26:51.210Z,21.75
2022-12-12T14:29:54.437Z,22.00
2022-12-12T14:33:07.222Z,21.00
2022-12-12T14:36:31.076Z,21.60
2022-12-12T14:39:57.668Z,21.80
2022-12-12T14:43:18.837Z,23.00
2022-12-12T14:46:24.798Z,20.00
2022-12-12T14:49:28.135Z,22.00
2022-12-12T14:52:32.971Z,20.60
2022-12-12T14:55:36.180Z,22.00
2022-12-12T14:58:43.490Z,18.20
2022-12-12T15:01:49.005Z,21.60
2022-12-12T15:05:00.836Z,20.00
2022-12-12T15:08:19.873Z,22.00
2022-12-12T15:11:25.578Z,21.25
2022-12-12T15:14:29.266Z,22.00
2022-12-12T15:17:36.065Z,22.00
2022-12-12T15:20:39.633Z,20.75
2022-12-12T15:23:44.484Z,21.25
2022-12-12T15:26:50.220Z,21.80
2022-12-12T15:29:53.660Z,23.00
2022-12-12T15:32:58.293Z,22.00
2022-12-12T15:36:05.058Z,22.00
2022-12-12T15:39:17.221Z,22.20
2022-12-12T15:42:20.666Z,21.00
2022-12-12T15:45:28.835Z,21.60
2022-12-12T15:48:32.170Z,22.00
2022-12-12T15:51:35.620Z,22.00
2022-12-12T15:54:47.484Z,22.00
2022-12-12T15:57:53.240Z,23.00
2022-12-12T16:01:05.298Z,23.00
2022-12-12T16:04:24.989Z,22.00
2022-12-12T16:07:28.545Z,22.00
2022-12-12T16:10:33.323Z,23.00
2022-12-12T16:13:38.940Z,25.00
2022-12-12T16:16:48.175Z,21.80
2022-12-12T16:19:57.181Z,23.00
2022-12-12T16:23:11.694Z,23.20
2022-12-12T16:26:16.998Z,22.40
2022-12-12T16:29:20.341Z,22.60
2022-12-12T16:32:24.699Z,24.00
2022-12-12T16:35:28.383Z,23.20
2022-12-12T16:38:32.633Z,23.00
2022-12-12T16:41:37.949Z,23.00
2022-12-12T16:44:41.415Z,23.00
2022-12-12T16:47:44.738Z,24.00
2022-12-12T16:50:49.833Z,23.50
2022-12-12T16:53:53.132Z,24.00
2022-12-12T16:56:58.017Z,23.60
2022-12-12T17:00:01.296Z,22.80
2022-12-12T17:03:04.640Z,23.00
2022-12-12T17:06:08.719Z,23.40
2022-12-12T17:09:12.129Z,25.40
2022-12-12T17:12:16.772Z,23.00
2022-12-12T17:15:22.996Z,23.00
2022-12-12T17:18:26.387Z,24.00
2022-12-12T17:21:29.627Z,24.40
2022-12-12T17:24:33.326Z,25.00
2022-12-12T17:27:40.409Z,25.40
2022-12-12T17:30:44.102Z,23.20
2022-12-12T17:33:50.922Z,24.00
2022-12-12T17:36:54.712Z,24.00
2022-12-12T17:39:58.070Z,24.00
2022-12-12T17:43:05.197Z,25.40
2022-12-12T17:46:14.526Z,25.40
2022-12-12T17:49:18.042Z,23.00
2022-12-12T17:52:21.579Z,27.00
2022-12-12T17:55:51.930Z,25.00
2022-12-12T17:58:50.541Z,24.00
2022-12-12T18:01:54.206Z,23.00
2022-12-12T18:04:57.844Z,24.33
2022-12-12T18:08:01.223Z,26.00
2022-12-12T18:11:08.146Z,26.00
2022-12-12T18:14:16.072Z,26.00
2022-12-12T18:17:19.366Z,26.00
2022-12-12T18:20:28.055Z,24.00
2022-12-12T18:23:35.505Z,27.00
2022-12-12T18:26:39.333Z,27.00
2022-12-12T18:29:44.396Z,25.50
2022-12-12T18:32:47.904Z,24.00
2022-12-12T18:35:51.549Z,26.00
2022-12-12T18:38:55.959Z,26.40
2022-12-12T18:41:59.345Z,27.00
2022-12-12T18:45:05.014Z,28.00
2022-12-12T18:48:08.328Z,28.00
2022-12-12T18:51:14.522Z,27.00
2022-12-12T18:54:18.697Z,27.00
2022-12-12T18:57:22.086Z,25.00
2022-12-12T19:00:26.829Z,27.40
2022-12-12T19:03:30.230Z,26.50
2022-12-12T19:06:35.320Z,27.60
2022-12-12T19:09:38.683Z,27.00
2022-12-12T19:12:42.260Z,26.40
2022-12-12T19:15:46.949Z,28.00
2022-12-12T19:18:50.352Z,27.40
2022-12-12T19:21:53.684Z,28.00
2022-12-12T19:24:57.151Z,24.00
2022-12-12T19:28:00.889Z,28.00
2022-12-12T19:31:09.803Z,27.20
2022-12-12T19:34:15.096Z,27.00
2022-12-12T19:37:18.790Z,28.00
2022-12-12T19:40:22.078Z,26.00
2022-12-12T19:43:25.297Z,27.00
2022-12-12T19:46:31.405Z,25.40
2022-12-12T19:49:34.617Z,24.75
2022-12-12T19:52:38.034Z,24.00
2022-12-12T19:55:47.713Z,26.00
2022-12-12T19:58:51.536Z,25.20
2022-12-12T20:01:56.875Z,26.00
2022-12-12T20:05:00.196Z,23.00
2022-12-12T20:08:03.826Z,27.00
2022-12-12T20:11:09.885Z,27.00
2022-12-12T20:14:14.900Z,26.75
2022-12-12T20:17:19.580Z,24.00
2022-12-12T20:20:22.955Z,26.00
2022-12-12T20:23:26.235Z,26.00
2022-12-12T20:26:31.212Z,24.50
2022-12-12T20:29:34.597Z,25.00
2022-12-12T20:32:40.265Z,26.00
2022-12-12T20:35:43.864Z,26.00
2022-12-12T20:38:48.644Z,27.00
2022-12-12T20:41:53.301Z,24.00
2022-12-12T20:44:56.654Z,23.00
2022-12-12T20:48:05.977Z,26.00
2022-12-12T20:51:45.736Z,26.00
2022-12-12T20:54:35.932Z,25.00
2022-12-12T20:57:39.447Z,24.00
2022-12-12T21:00:42.765Z,26.00
2022-12-12T21:03:49.984Z,23.00
2022-12-12T21:06:53.785Z,24.00
2022-12-12T21:09:57.124Z,23.40
2022-12-12T21:13:00.528Z,23.00
2022-12-12T21:16:10.140Z,24.00
2022-12-12T21:19:16.279Z,22.00
2022-12-12T21:22:19.671Z,22.00
2022-12-12T21:25:24.565Z,20.00
2022-12-12T21:28:27.852Z,20.00
2022-12-12T21:31:33.264Z,20.00
2022-12-12T21:34:40.208Z,20.00
2022-12-12T21:37:43.608Z,20.00
2022-12-12T21:40:47.057Z,21.00
2022-12-12T21:43:51.345Z,20.00
2022-12-12T21:46:54.809Z,19.00
2022-12-12T21:50:03.440Z,22.00
2022-12-12T21:53:24.242Z,22.00
2022-12-12T21:56:27.826Z,22.60
2022-12-12T21:59:32.918Z,22.00
2022-12-12T22:02:36.455Z,19.00
2022-12-12T22:05:41.474Z,20.80
2022-12-12T22:08:46.445Z,20.75
2022-12-12T22:11:52.379Z,19.50
2022-12-12T22:15:07.973Z,19.60
2022-12-12T22:18:11.238Z,20.00
2022-12-12T22:21:19.069Z,17.00
2022-12-12T22:24:22.433Z,18.67
2022-12-12T22:27:25.724Z,17.20
2022-12-12T22:30:28.982Z,15.33
2022-12-12T22:33:32.576Z,17.00
2022-12-12T22:36:39.401Z,18.00
2022-12-12T22:39:42.659Z,14.20
2022-12-12T22:42:45.964Z,16.60
2022-12-12T22:45:49.687Z,18.00
2022-12-12T22:48:53.412Z,15.40
2022-12-12T22:51:59.395Z,18.75
2022-12-12T22:55:02.783Z,19.00
2022-12-12T22:58:06.082Z,19.25
2022-12-12T23:01:11.117Z,16.40
2022-12-12T23:04:15.596Z,16.40
2022-12-12T23:07:20.396Z,14.00
2022-12-12T23:10:23.711Z,14.60
2022-12-12T23:13:27.239Z,16.00
2022-12-12T23:16:31.934Z,16.00
2022-12-12T23:19:35.416Z,15.00
2022-12-12T23:22:42.797Z,17.00
2022-12-12T23:25:46.100Z,16.40
2022-12-12T23:28:50.364Z,14.75
2022-12-12T23:31:53.989Z,18.00
2022-12-12T23:34:57.534Z,17.00
2022-12-12T23:38:02.570Z,13.00
2022-12-12T23:41:06.778Z,12.20
2022-12-12T23:44:13.424Z,14.33
2022-12-12T23:47:17.007Z,15.00
2022-12-12T23:50:20.470Z,17.00
2022-12-12T23:53:25.177Z,14.00
2022-12-12T23:56:29.510Z,14.20
2022-12-12T23:59:32.932Z,16.00
